Weather at HonorHealth Scottsdale Osborn Medical Center Heliport

Public forecast

Using degrees Fahrenheit for public forecast. Weather courtesy of forecast.io.

Closest aviation weather report (METAR) to HonorHealth Scottsdale Osborn Medical Center Heliport

Closest report is Phoenix Sky Harbor International Airport, 5.2 nm (9.7 km) SW.

2023/03/28 04:51 (retrieved 20 minutes ago)

KPHX 280451Z 00000KT 10SM FEW250 15/02 A3008 RMK AO2 SLP176 T01500022

Closest aviation forecast (TAF) to HonorHealth Scottsdale Osborn Medical Center Heliport

Forecast is more than 6 hours old.

Closest forecast is Davis Monthan Air Force Base, 95.1 nm (176.1 km) SSE.

2023/03/27 22:03 (retrieved 7 hours ago)

TAF KDMA 272200Z 2722/2904 31010KT 9999 SKC QNH3004INS BECMG 2807/2808 VRB06KT 9999 SCT220 QNH3006INS BECMG 2813/2814 23012KT 9999 SKC QNH2994INS TX27/2821Z TN06/2812Z